sensor_id;sensor_type;location;lat;lon;timestamp;pressure;altitude;pressure_sealevel;temperature;humidity
13553;BME280;6847;48.830;9.116;2023-02-23T00:01:48;97570.53;;;12.47;47.65
13553;BME280;6847;48.830;9.116;2023-02-23T00:04:15;97568.63;;;12.48;48.16
13553;BME280;6847;48.830;9.116;2023-02-23T00:06:46;97568.88;;;12.51;48.53
13553;BME280;6847;48.830;9.116;2023-02-23T00:09:17;97556.00;;;12.57;48.66
13553;BME280;6847;48.830;9.116;2023-02-23T00:11:50;97564.66;;;12.59;48.14
13553;BME280;6847;48.830;9.116;2023-02-23T00:14:18;97491.53;;;12.16;47.75
13553;BME280;6847;48.830;9.116;2023-02-23T00:16:45;97567.25;;;12.64;48.51
13553;BME280;6847;48.830;9.116;2023-02-23T00:19:12;97555.00;;;12.67;48.28
13553;BME280;6847;48.830;9.116;2023-02-23T00:21:40;97562.06;;;12.68;48.36
13553;BME280;6847;48.830;9.116;2023-02-23T00:24:13;97556.31;;;12.69;48.74
13553;BME280;6847;48.830;9.116;2023-02-23T00:26:41;97552.81;;;12.69;49.27
13553;BME280;6847;48.830;9.116;2023-02-23T00:29:13;97548.19;;;12.69;47.97
13553;BME280;6847;48.830;9.116;2023-02-23T00:31:41;97562.88;;;12.68;48.66
13553;BME280;6847;48.830;9.116;2023-02-23T00:34:13;97560.03;;;12.59;49.11
13553;BME280;6847;48.830;9.116;2023-02-23T00:36:40;97555.00;;;12.53;48.89
13553;BME280;6847;48.830;9.116;2023-02-23T00:39:11;97559.41;;;12.49;48.89
13553;BME280;6847;48.830;9.116;2023-02-23T00:41:46;97558.38;;;12.45;49.29
13553;BME280;6847;48.830;9.116;2023-02-23T00:44:17;97487.47;;;12.00;49.66
13553;BME280;6847;48.830;9.116;2023-02-23T00:49:15;97556.75;;;12.44;50.23
13553;BME280;6847;48.830;9.116;2023-02-23T00:51:45;97561.41;;;12.43;50.10
13553;BME280;6847;48.830;9.116;2023-02-23T00:54:16;97555.16;;;12.43;50.25
13553;BME280;6847;48.830;9.116;2023-02-23T00:56:43;97555.16;;;12.43;50.02
13553;BME280;6847;48.830;9.116;2023-02-23T00:59:11;97497.63;;;12.08;50.25
13553;BME280;6847;48.830;9.116;2023-02-23T01:01:39;97552.53;;;12.38;50.41
13553;BME280;6847;48.830;9.116;2023-02-23T01:04:10;97547.09;;;12.38;50.47
13553;BME280;6847;48.830;9.116;2023-02-23T01:06:38;97544.38;;;12.38;50.35
13553;BME280;6847;48.830;9.116;2023-02-23T01:09:09;97543.28;;;12.39;50.94
13553;BME280;6847;48.830;9.116;2023-02-23T01:11:41;97537.03;;;12.38;51.00
13553;BME280;6847;48.830;9.116;2023-02-23T01:14:10;97541.66;;;12.38;50.90
13553;BME280;6847;48.830;9.116;2023-02-23T01:16:38;97486.06;;;12.03;50.87
13553;BME280;6847;48.830;9.116;2023-02-23T01:19:05;97520.78;;;12.19;51.00
13553;BME280;6847;48.830;9.116;2023-02-23T01:21:33;97544.47;;;12.33;50.60
13553;BME280;6847;48.830;9.116;2023-02-23T01:24:00;97478.38;;;11.91;50.90
13553;BME280;6847;48.830;9.116;2023-02-23T01:26:30;97546.56;;;12.36;51.17
13553;BME280;6847;48.830;9.116;2023-02-23T01:29:03;97544.66;;;12.36;51.54
13553;BME280;6847;48.830;9.116;2023-02-23T01:31:34;97549.81;;;12.38;51.49
13553;BME280;6847;48.830;9.116;2023-02-23T01:34:06;97543.84;;;12.36;51.07
13553;BME280;6847;48.830;9.116;2023-02-23T01:36:35;97546.88;;;12.34;50.80
13553;BME280;6847;48.830;9.116;2023-02-23T01:39:06;97549.28;;;12.36;51.43
13553;BME280;6847;48.830;9.116;2023-02-23T01:41:35;97549.28;;;12.36;51.53
13553;BME280;6847;48.830;9.116;2023-02-23T01:45:01;97447.91;;;11.80;50.93
13553;BME280;6847;48.830;9.116;2023-02-23T01:46:56;97537.44;;;12.32;51.31
13553;BME280;6847;48.830;9.116;2023-02-23T01:49:26;97418.94;;;11.57;51.72
13553;BME280;6847;48.830;9.116;2023-02-23T01:51:59;97531.50;;;12.30;52.11
13553;BME280;6847;48.830;9.116;2023-02-23T01:54:29;97533.09;;;12.31;51.45
13553;BME280;6847;48.830;9.116;2023-02-23T01:57:01;97533.16;;;12.26;51.50
13553;BME280;6847;48.830;9.116;2023-02-23T01:59:31;97529.88;;;12.29;51.65
13553;BME280;6847;48.830;9.116;2023-02-23T02:02:01;97529.88;;;12.29;51.45
13553;BME280;6847;48.830;9.116;2023-02-23T02:04:29;97520.13;;;12.28;51.62
13553;BME280;6847;48.830;9.116;2023-02-23T02:07:03;97529.06;;;12.28;51.28
13553;BME280;6847;48.830;9.116;2023-02-23T02:09:32;97523.94;;;12.27;51.53
13553;BME280;6847;48.830;9.116;2023-02-23T02:12:04;97529.34;;;12.27;51.71
13553;BME280;6847;48.830;9.116;2023-02-23T02:14:34;97523.94;;;12.27;51.96
13553;BME280;6847;48.830;9.116;2023-02-23T02:17:19;97526.13;;;12.24;52.29
13553;BME280;6847;48.830;9.116;2023-02-23T02:23:21;97514.78;;;12.22;52.20
13553;BME280;6847;48.830;9.116;2023-02-23T02:26:02;97518.50;;;12.27;51.73
13553;BME280;6847;48.830;9.116;2023-02-23T02:28:58;97511.44;;;12.26;52.14
13553;BME280;6847;48.830;9.116;2023-02-23T02:31:54;97513.06;;;12.27;52.65
13553;BME280;6847;48.830;9.116;2023-02-23T02:34:55;97514.69;;;12.28;52.62
13553;BME280;6847;48.830;9.116;2023-02-23T02:37:43;97514.41;;;12.29;53.27
13553;BME280;6847;48.830;9.116;2023-02-23T02:40:19;97512.50;;;12.30;53.04
13553;BME280;6847;48.830;9.116;2023-02-23T02:43:05;97499.50;;;12.27;52.75
13553;BME280;6847;48.830;9.116;2023-02-23T02:45:42;97502.72;;;12.29;52.89
13553;BME280;6847;48.830;9.116;2023-02-23T02:48:17;97499.22;;;12.28;52.61
13553;BME280;6847;48.830;9.116;2023-02-23T02:50:52;97499.50;;;12.27;52.24
13553;BME280;6847;48.830;9.116;2023-02-23T02:53:35;97500.59;;;12.26;52.99
13553;BME280;6847;48.830;9.116;2023-02-23T02:56:05;97499.78;;;12.25;53.28
13553;BME280;6847;48.830;9.116;2023-02-23T02:58:34;97483.38;;;12.16;53.15
13553;BME280;6847;48.830;9.116;2023-02-23T03:01:05;97493.66;;;12.19;53.36
13553;BME280;6847;48.830;9.116;2023-02-23T03:03:50;97493.88;;;12.23;53.36
13553;BME280;6847;48.830;9.116;2023-02-23T03:06:38;97481.06;;;12.10;52.88
13553;BME280;6847;48.830;9.116;2023-02-23T03:09:34;97494.97;;;12.22;53.36
13553;BME280;6847;48.830;9.116;2023-02-23T03:12:29;97493.38;;;12.21;53.38
13553;BME280;6847;48.830;9.116;2023-02-23T03:15:27;97498.78;;;12.21;52.88
13553;BME280;6847;48.830;9.116;2023-02-23T03:18:30;97492.56;;;12.20;53.03
13553;BME280;6847;48.830;9.116;2023-02-23T03:21:21;97497.41;;;12.23;53.23
13553;BME280;6847;48.830;9.116;2023-02-23T03:24:14;97496.38;;;12.19;53.37
13553;BME280;6847;48.830;9.116;2023-02-23T03:27:08;97501.81;;;12.19;53.66
13553;BME280;6847;48.830;9.116;2023-02-23T03:30:01;97505.91;;;12.17;53.67
13553;BME280;6847;48.830;9.116;2023-02-23T03:32:52;97490.00;;;12.10;54.38
13553;BME280;6847;48.830;9.116;2023-02-23T03:35:49;97501.81;;;12.19;53.71
13553;BME280;6847;48.830;9.116;2023-02-23T03:38:38;97502.91;;;12.18;54.33
13553;BME280;6847;48.830;9.116;2023-02-23T03:41:27;97509.13;;;12.19;53.93
13553;BME280;6847;48.830;9.116;2023-02-23T03:44:16;97490.53;;;12.12;53.44
13553;BME280;6847;48.830;9.116;2023-02-23T03:47:03;97509.44;;;12.17;53.68
13553;BME280;6847;48.830;9.116;2023-02-23T03:49:50;97507.81;;;12.16;53.73
13553;BME280;6847;48.830;9.116;2023-02-23T03:52:41;97504.00;;;12.17;54.30
13553;BME280;6847;48.830;9.116;2023-02-23T03:55:33;97514.84;;;12.17;53.96
13553;BME280;6847;48.830;9.116;2023-02-23T03:58:22;97514.34;;;12.15;54.33
13553;BME280;6847;48.830;9.116;2023-02-23T04:01:11;97509.44;;;12.17;53.92
13553;BME280;6847;48.830;9.116;2023-02-23T04:03:58;97509.94;;;12.19;54.09
13553;BME280;6847;48.830;9.116;2023-02-23T04:06:45;97508.84;;;12.20;54.07
13553;BME280;6847;48.830;9.116;2023-02-23T04:09:31;97506.66;;;12.22;54.98
13553;BME280;6847;48.830;9.116;2023-02-23T04:12:20;97477.63;;;12.04;54.14
13553;BME280;6847;48.830;9.116;2023-02-23T04:15:10;97507.13;;;12.24;53.87
13553;BME280;6847;48.830;9.116;2023-02-23T04:17:39;97507.13;;;12.24;54.51
13553;BME280;6847;48.830;9.116;2023-02-23T04:20:08;97480.34;;;12.04;54.41
13553;BME280;6847;48.830;9.116;2023-02-23T04:22:36;97510.34;;;12.27;54.88
13553;BME280;6847;48.830;9.116;2023-02-23T04:25:06;97474.94;;;12.04;54.12
13553;BME280;6847;48.830;9.116;2023-02-23T04:27:36;97495.28;;;12.20;54.14
13553;BME280;6847;48.830;9.116;2023-02-23T04:30:07;97508.44;;;12.27;54.27
13553;BME280;6847;48.830;9.116;2023-02-23T04:32:36;97487.19;;;12.15;54.52
13553;BME280;6847;48.830;9.116;2023-02-23T04:35:05;97492.16;;;12.13;53.94
13553;BME280;6847;48.830;9.116;2023-02-23T04:37:32;97499.66;;;12.16;55.11
13553;BME280;6847;48.830;9.116;2023-02-23T04:39:59;97520.69;;;12.24;55.32
13553;BME280;6847;48.830;9.116;2023-02-23T04:42:26;97511.44;;;12.26;54.56
13553;BME280;6847;48.830;9.116;2023-02-23T04:44:54;97523.13;;;12.26;55.11
13553;BME280;6847;48.830;9.116;2023-02-23T04:47:21;97518.78;;;12.25;54.80
13553;BME280;6847;48.830;9.116;2023-02-23T04:49:48;97519.91;;;12.24;54.96
13553;BME280;6847;48.830;9.116;2023-02-23T04:52:16;97516.41;;;12.23;55.36
13553;BME280;6847;48.830;9.116;2023-02-23T04:54:43;97517.97;;;12.24;54.61
13553;BME280;6847;48.830;9.116;2023-02-23T04:57:10;97519.91;;;12.24;54.88
13553;BME280;6847;48.830;9.116;2023-02-23T04:59:37;97523.41;;;12.24;54.73
13553;BME280;6847;48.830;9.116;2023-02-23T05:02:04;97520.69;;;12.24;54.93
13553;BME280;6847;48.830;9.116;2023-02-23T05:04:32;97520.69;;;12.24;54.61
13553;BME280;6847;48.830;9.116;2023-02-23T05:07:00;97514.16;;;12.26;55.09
13553;BME280;6847;48.830;9.116;2023-02-23T05:09:33;97402.03;;;11.46;55.09
13553;BME280;6847;48.830;9.116;2023-02-23T05:12:00;97521.81;;;12.23;55.26
13553;BME280;6847;48.830;9.116;2023-02-23T05:14:28;97522.31;;;12.26;55.19
13553;BME280;6847;48.830;9.116;2023-02-23T05:16:56;97519.59;;;12.26;55.67
13553;BME280;6847;48.830;9.116;2023-02-23T05:19:23;97519.13;;;12.23;55.25
13553;BME280;6847;48.830;9.116;2023-02-23T05:21:50;97517.50;;;12.22;55.64
13553;BME280;6847;48.830;9.116;2023-02-23T05:24:17;97519.13;;;12.23;55.12
13553;BME280;6847;48.830;9.116;2023-02-23T05:26:47;97345.63;;;11.16;55.48
13553;BME280;6847;48.830;9.116;2023-02-23T05:29:14;97522.31;;;12.26;55.55
13553;BME280;6847;48.830;9.116;2023-02-23T05:31:43;97514.78;;;12.22;55.13
13553;BME280;6847;48.830;9.116;2023-02-23T05:34:13;97487.28;;;12.10;55.96
13553;BME280;6847;48.830;9.116;2023-02-23T05:36:42;97524.97;;;12.31;55.23
13553;BME280;6847;48.830;9.116;2023-02-23T05:39:09;97502.84;;;12.23;55.67
13553;BME280;6847;48.830;9.116;2023-02-23T05:41:36;97524.38;;;12.34;55.26
13553;BME280;6847;48.830;9.116;2023-02-23T05:44:05;97525.97;;;12.35;56.13
13553;BME280;6847;48.830;9.116;2023-02-23T05:46:32;97531.91;;;12.37;55.65
13553;BME280;6847;48.830;9.116;2023-02-23T05:49:00;97513.00;;;12.32;55.28
13553;BME280;6847;48.830;9.116;2023-02-23T05:51:28;97527.00;;;12.39;55.29
13553;BME280;6847;48.830;9.116;2023-02-23T05:53:55;97479.66;;;12.12;55.59
13553;BME280;6847;48.830;9.116;2023-02-23T05:56:22;97523.75;;;12.37;55.43
13553;BME280;6847;48.830;9.116;2023-02-23T05:58:50;97525.16;;;12.34;56.19
13553;BME280;6847;48.830;9.116;2023-02-23T06:01:21;97517.31;;;12.33;56.03
13553;BME280;6847;48.830;9.116;2023-02-23T06:03:48;97523.94;;;12.27;55.94
13553;BME280;6847;48.830;9.116;2023-02-23T06:06:15;97527.16;;;12.29;55.78
13553;BME280;6847;48.830;9.116;2023-02-23T06:08:43;97480.84;;;12.06;55.90
13553;BME280;6847;48.830;9.116;2023-02-23T06:11:09;97527.75;;;12.26;55.57
13553;BME280;6847;48.830;9.116;2023-02-23T06:13:37;97531.56;;;12.24;55.67
13553;BME280;6847;48.830;9.116;2023-02-23T06:16:05;97525.34;;;12.24;55.99
13553;BME280;6847;48.830;9.116;2023-02-23T06:18:35;97516.47;;;12.18;55.76
13553;BME280;6847;48.830;9.116;2023-02-23T06:21:02;97528.94;;;12.19;56.03
13553;BME280;6847;48.830;9.116;2023-02-23T06:23:30;97534.78;;;12.27;56.37
13553;BME280;6847;48.830;9.116;2023-02-23T06:25:58;97541.31;;;12.26;55.97
13553;BME280;6847;48.830;9.116;2023-02-23T06:28:26;97540.81;;;12.23;56.54
13553;BME280;6847;48.830;9.116;2023-02-23T06:30:53;97542.41;;;12.24;55.58
13553;BME280;6847;48.830;9.116;2023-02-23T06:33:21;97542.41;;;12.24;55.94
13553;BME280;6847;48.830;9.116;2023-02-23T06:35:51;97541.31;;;12.26;56.16
13553;BME280;6847;48.830;9.116;2023-02-23T06:38:19;97545.34;;;12.28;56.13
13553;BME280;6847;48.830;9.116;2023-02-23T06:40:46;97545.06;;;12.30;56.63
13553;BME280;6847;48.830;9.116;2023-02-23T06:43:13;97542.84;;;12.32;56.01
13553;BME280;6847;48.830;9.116;2023-02-23T06:45:40;97549.91;;;12.33;55.79
13553;BME280;6847;48.830;9.116;2023-02-23T06:48:11;97551.53;;;12.34;56.00
13553;BME280;6847;48.830;9.116;2023-02-23T06:50:37;97546.88;;;12.34;56.35
13553;BME280;6847;48.830;9.116;2023-02-23T06:53:06;97558.53;;;12.35;56.44
13553;BME280;6847;48.830;9.116;2023-02-23T06:55:33;97430.00;;;11.61;56.03
13553;BME280;6847;48.830;9.116;2023-02-23T06:58:00;97557.44;;;12.36;56.08
13553;BME280;6847;48.830;9.116;2023-02-23T07:00:28;97555.53;;;12.36;56.08
13553;BME280;6847;48.830;9.116;2023-02-23T07:02:56;97565.88;;;12.34;56.48
13553;BME280;6847;48.830;9.116;2023-02-23T07:05:24;97570.19;;;12.35;56.49
13553;BME280;6847;48.830;9.116;2023-02-23T07:07:51;97571.81;;;12.36;55.84
13553;BME280;6847;48.830;9.116;2023-02-23T07:10:19;97574.75;;;12.40;56.44
13553;BME280;6847;48.830;9.116;2023-02-23T07:12:48;97574.66;;;12.45;56.48
13553;BME280;6847;48.830;9.116;2023-02-23T07:15:17;97582.72;;;12.50;56.18
13553;BME280;6847;48.830;9.116;2023-02-23T07:17:45;97578.31;;;12.54;56.73
13553;BME280;6847;48.830;9.116;2023-02-23T07:20:15;97575.50;;;12.59;56.45
13553;BME280;6847;48.830;9.116;2023-02-23T07:22:42;97577.13;;;12.60;56.05
13553;BME280;6847;48.830;9.116;2023-02-23T07:25:09;97576.75;;;12.67;56.37
13553;BME280;6847;48.830;9.116;2023-02-23T07:27:39;97578.75;;;12.61;56.82
13553;BME280;6847;48.830;9.116;2023-02-23T07:30:08;97586.22;;;12.69;56.71
13553;BME280;6847;48.830;9.116;2023-02-23T07:32:37;97592.16;;;12.71;56.46
13553;BME280;6847;48.830;9.116;2023-02-23T07:35:07;97588.22;;;12.77;56.85
13553;BME280;6847;48.830;9.116;2023-02-23T07:37:34;97589.16;;;12.86;56.88
13553;BME280;6847;48.830;9.116;2023-02-23T07:40:01;97582.09;;;12.85;57.09
13553;BME280;6847;48.830;9.116;2023-02-23T07:42:30;97595.31;;;13.06;56.69
13553;BME280;6847;48.830;9.116;2023-02-23T07:45:03;97596.25;;;13.15;56.91
13553;BME280;6847;48.830;9.116;2023-02-23T07:47:31;97597.69;;;13.26;55.95
13553;BME280;6847;48.830;9.116;2023-02-23T07:50:00;97591.34;;;13.30;56.11
13553;BME280;6847;48.830;9.116;2023-02-23T07:52:34;97585.19;;;13.25;56.13
13553;BME280;6847;48.830;9.116;2023-02-23T07:55:01;97584.31;;;13.29;56.68
13553;BME280;6847;48.830;9.116;2023-02-23T07:57:29;97603.84;;;13.45;56.54
13553;BME280;6847;48.830;9.116;2023-02-23T07:59:59;97585.72;;;13.41;57.02
13553;BME280;6847;48.830;9.116;2023-02-23T08:02:27;97592.75;;;13.55;56.87
13553;BME280;6847;48.830;9.116;2023-02-23T08:04:54;97596.47;;;13.59;56.59
13553;BME280;6847;48.830;9.116;2023-02-23T08:07:22;97598.56;;;13.62;56.51
13553;BME280;6847;48.830;9.116;2023-02-23T08:09:50;97579.44;;;13.54;56.60
13553;BME280;6847;48.830;9.116;2023-02-23T08:12:18;97601.72;;;13.69;56.87
13553;BME280;6847;48.830;9.116;2023-02-23T08:14:44;97596.16;;;13.75;56.46
13553;BME280;6847;48.830;9.116;2023-02-23T08:17:15;97592.72;;;13.83;56.98
13553;BME280;6847;48.830;9.116;2023-02-23T08:19:42;97557.47;;;13.64;56.54
13553;BME280;6847;48.830;9.116;2023-02-23T08:22:09;97585.25;;;13.88;56.38
13553;BME280;6847;48.830;9.116;2023-02-23T08:24:36;97606.88;;;14.07;56.83
13553;BME280;6847;48.830;9.116;2023-02-23T08:27:03;97603.94;;;14.17;56.72
13553;BME280;6847;48.830;9.116;2023-02-23T08:29:30;97608.63;;;14.25;56.40
13553;BME280;6847;48.830;9.116;2023-02-23T08:32:01;97601.84;;;14.36;56.42
13553;BME280;6847;48.830;9.116;2023-02-23T08:34:30;97601.81;;;14.50;56.76
13553;BME280;6847;48.830;9.116;2023-02-23T08:36:57;97607.19;;;14.64;56.66
13553;BME280;6847;48.830;9.116;2023-02-23T08:39:24;97600.38;;;14.75;56.59
13553;BME280;6847;48.830;9.116;2023-02-23T08:41:53;97605.06;;;14.83;56.20
13553;BME280;6847;48.830;9.116;2023-02-23T08:44:20;97610.41;;;14.88;56.45
13553;BME280;6847;48.830;9.116;2023-02-23T08:46:48;97612.69;;;14.95;56.40
13553;BME280;6847;48.830;9.116;2023-02-23T08:49:15;97613.84;;;15.02;56.22
13553;BME280;6847;48.830;9.116;2023-02-23T08:51:43;97612.28;;;15.10;56.44
13553;BME280;6847;48.830;9.116;2023-02-23T08:54:14;97611.97;;;15.11;56.48
13553;BME280;6847;48.830;9.116;2023-02-23T08:56:43;97618.69;;;15.05;56.38
13553;BME280;6847;48.830;9.116;2023-02-23T08:59:11;97613.56;;;15.12;56.43
13553;BME280;6847;48.830;9.116;2023-02-23T09:01:38;97616.19;;;15.17;56.35
13553;BME280;6847;48.830;9.116;2023-02-23T09:04:06;97622.41;;;15.18;56.43
13553;BME280;6847;48.830;9.116;2023-02-23T09:06:37;97617.31;;;15.16;56.42
13553;BME280;6847;48.830;9.116;2023-02-23T09:09:06;97617.75;;;15.18;56.57
13553;BME280;6847;48.830;9.116;2023-02-23T09:11:33;97617.97;;;15.22;56.55
13553;BME280;6847;48.830;9.116;2023-02-23T09:14:01;97624.09;;;15.28;56.53
13553;BME280;6847;48.830;9.116;2023-02-23T09:16:29;97601.63;;;15.31;56.38
13553;BME280;6847;48.830;9.116;2023-02-23T09:18:56;97625.84;;;15.54;56.23
13553;BME280;6847;48.830;9.116;2023-02-23T09:21:27;97608.38;;;15.64;56.20
13553;BME280;6847;48.830;9.116;2023-02-23T09:23:57;97622.56;;;16.01;55.74
13553;BME280;6847;48.830;9.116;2023-02-23T09:26:25;97620.53;;;16.41;55.36
13553;BME280;6847;48.830;9.116;2023-02-23T09:28:54;97624.22;;;16.88;54.78
13553;BME280;6847;48.830;9.116;2023-02-23T09:31:22;97617.31;;;17.37;54.14
13553;BME280;6847;48.830;9.116;2023-02-23T09:33:52;97602.72;;;17.71;53.72
13553;BME280;6847;48.830;9.116;2023-02-23T09:36:29;97620.16;;;18.37;53.06
13553;BME280;6847;48.830;9.116;2023-02-23T09:38:57;97618.81;;;18.64;53.00
13553;BME280;6847;48.830;9.116;2023-02-23T09:41:39;97619.13;;;18.83;53.18
13553;BME280;6847;48.830;9.116;2023-02-23T09:44:17;97630.41;;;19.03;52.91
13553;BME280;6847;48.830;9.116;2023-02-23T09:46:55;97622.19;;;19.15;53.18
13553;BME280;6847;48.830;9.116;2023-02-23T09:49:27;97621.47;;;19.39;53.04
13553;BME280;6847;48.830;9.116;2023-02-23T09:51:57;97619.25;;;20.54;51.32
13553;BME280;6847;48.830;9.116;2023-02-23T09:54:31;97626.03;;;21.75;49.49
13553;BME280;6847;48.830;9.116;2023-02-23T09:57:02;97609.97;;;22.28;49.05
13553;BME280;6847;48.830;9.116;2023-02-23T09:59:29;97630.41;;;22.42;49.28
13553;BME280;6847;48.830;9.116;2023-02-23T10:02:03;97628.03;;;22.25;49.81
13553;BME280;6847;48.830;9.116;2023-02-23T10:04:35;97624.91;;;22.62;49.36
13553;BME280;6847;48.830;9.116;2023-02-23T10:07:11;97630.56;;;22.69;49.49
13553;BME280;6847;48.830;9.116;2023-02-23T10:09:51;97633.94;;;22.78;49.51
13553;BME280;6847;48.830;9.116;2023-02-23T10:12:30;97634.19;;;23.31;48.64
13553;BME280;6847;48.830;9.116;2023-02-23T10:15:13;97630.44;;;23.42;48.68
13553;BME280;6847;48.830;9.116;2023-02-23T10:17:50;97641.13;;;23.44;48.65
13553;BME280;6847;48.830;9.116;2023-02-23T10:20:26;97623.66;;;23.17;49.06
13553;BME280;6847;48.830;9.116;2023-02-23T10:22:55;97632.56;;;23.72;48.37
13553;BME280;6847;48.830;9.116;2023-02-23T10:25:30;97635.91;;;23.39;48.81
13553;BME280;6847;48.830;9.116;2023-02-23T10:27:59;97632.34;;;22.96;49.45
13553;BME280;6847;48.830;9.116;2023-02-23T10:30:29;97629.72;;;23.03;49.36
13553;BME280;6847;48.830;9.116;2023-02-23T10:33:02;97630.66;;;23.11;48.99
13553;BME280;6847;48.830;9.116;2023-02-23T10:35:31;97620.25;;;22.66;49.78
13553;BME280;6847;48.830;9.116;2023-02-23T10:38:00;97609.41;;;21.87;50.70
13553;BME280;6847;48.830;9.116;2023-02-23T10:40:30;97627.47;;;21.37;51.46
13553;BME280;6847;48.830;9.116;2023-02-23T10:42:59;97614.84;;;20.93;51.84
13553;BME280;6847;48.830;9.116;2023-02-23T10:45:28;97628.13;;;20.75;51.98
13553;BME280;6847;48.830;9.116;2023-02-23T10:47:57;97625.19;;;20.56;52.19
13553;BME280;6847;48.830;9.116;2023-02-23T10:50:25;97632.56;;;20.40;52.10
13553;BME280;6847;48.830;9.116;2023-02-23T10:52:55;97628.00;;;20.19;52.10
13553;BME280;6847;48.830;9.116;2023-02-23T10:58:14;97633.06;;;19.81;52.27
13553;BME280;6847;48.830;9.116;2023-02-23T11:00:51;97629.97;;;19.70;52.05
13553;BME280;6847;48.830;9.116;2023-02-23T11:03:39;97630.53;;;19.64;52.05
13553;BME280;6847;48.830;9.116;2023-02-23T11:06:26;97624.59;;;19.62;51.80
13553;BME280;6847;48.830;9.116;2023-02-23T11:08:53;97609.69;;;19.38;51.55
13553;BME280;6847;48.830;9.116;2023-02-23T11:13:55;97589.81;;;19.53;51.18
13553;BME280;6847;48.830;9.116;2023-02-23T11:16:24;97619.56;;;19.88;50.52
13553;BME280;6847;48.830;9.116;2023-02-23T11:18:53;97619.88;;;20.11;50.43
13553;BME280;6847;48.830;9.116;2023-02-23T11:21:24;97612.28;;;20.44;49.84
13553;BME280;6847;48.830;9.116;2023-02-23T11:23:54;97612.16;;;20.81;49.36
13553;BME280;6847;48.830;9.116;2023-02-23T11:26:36;97604.56;;;21.05;49.01
13553;BME280;6847;48.830;9.116;2023-02-23T11:29:13;97606.06;;;21.62;48.43
13553;BME280;6847;48.830;9.116;2023-02-23T11:31:46;97606.63;;;22.19;47.74
13553;BME280;6847;48.830;9.116;2023-02-23T11:34:22;97600.66;;;22.71;47.08
13553;BME280;6847;48.830;9.116;2023-02-23T11:37:01;97597.31;;;23.65;46.02
13553;BME280;6847;48.830;9.116;2023-02-23T11:39:29;97593.66;;;24.66;44.99
13553;BME280;6847;48.830;9.116;2023-02-23T11:42:11;97598.59;;;25.58;44.26
13553;BME280;6847;48.830;9.116;2023-02-23T11:44:41;97593.44;;;26.00;44.09
13553;BME280;6847;48.830;9.116;2023-02-23T11:47:14;97594.91;;;25.87;44.59
13553;BME280;6847;48.830;9.116;2023-02-23T11:49:50;97587.88;;;25.53;44.94
13553;BME280;6847;48.830;9.116;2023-02-23T11:52:21;97531.25;;;24.73;45.58
13553;BME280;6847;48.830;9.116;2023-02-23T11:54:53;97578.59;;;24.64;46.34
13553;BME280;6847;48.830;9.116;2023-02-23T11:57:25;97584.06;;;24.57;46.31
13553;BME280;6847;48.830;9.116;2023-02-23T11:59:56;97580.34;;;24.19;46.34
13553;BME280;6847;48.830;9.116;2023-02-23T12:02:25;97584.78;;;23.97;46.69
13553;BME280;6847;48.830;9.116;2023-02-23T12:05:02;97581.50;;;23.88;46.34
13553;BME280;6847;48.830;9.116;2023-02-23T12:07:35;97582.06;;;23.75;46.33
13553;BME280;6847;48.830;9.116;2023-02-23T12:10:11;97579.13;;;23.90;46.07
13553;BME280;6847;48.830;9.116;2023-02-23T12:12:50;97576.59;;;24.31;45.13
13553;BME280;6847;48.830;9.116;2023-02-23T12:15:32;97564.19;;;24.48;44.87
13553;BME280;6847;48.830;9.116;2023-02-23T12:18:04;97570.38;;;24.38;44.91
13553;BME280;6847;48.830;9.116;2023-02-23T12:20:38;97565.94;;;24.33;44.99
13553;BME280;6847;48.830;9.116;2023-02-23T12:23:09;97573.63;;;24.17;45.17
13553;BME280;6847;48.830;9.116;2023-02-23T12:25:41;97569.22;;;23.86;45.39
13553;BME280;6847;48.830;9.116;2023-02-23T12:28:19;97568.25;;;23.52;45.74
13553;BME280;6847;48.830;9.116;2023-02-23T12:30:57;97567.91;;;23.31;45.69
13553;BME280;6847;48.830;9.116;2023-02-23T12:33:32;97563.44;;;22.80;46.04
13553;BME280;6847;48.830;9.116;2023-02-23T12:36:01;97562.97;;;22.40;45.98
13553;BME280;6847;48.830;9.116;2023-02-23T12:38:39;97560.34;;;21.93;46.46
13553;BME280;6847;48.830;9.116;2023-02-23T12:41:12;97553.91;;;21.54;46.71
13553;BME280;6847;48.830;9.116;2023-02-23T12:43:47;97546.06;;;21.09;46.88
13553;BME280;6847;48.830;9.116;2023-02-23T12:46:21;97559.16;;;20.84;46.99
13553;BME280;6847;48.830;9.116;2023-02-23T12:48:56;97553.31;;;20.57;47.30
13553;BME280;6847;48.830;9.116;2023-02-23T12:51:29;97551.00;;;20.31;47.23
13553;BME280;6847;48.830;9.116;2023-02-23T12:53:58;97521.09;;;19.90;47.07
13553;BME280;6847;48.830;9.116;2023-02-23T12:56:43;97552.25;;;19.82;47.18
13553;BME280;6847;48.830;9.116;2023-02-23T12:59:34;97546.09;;;19.61;47.15
13553;BME280;6847;48.830;9.116;2023-02-23T13:02:13;97552.59;;;19.44;47.20
13553;BME280;6847;48.830;9.116;2023-02-23T13:07:51;97542.16;;;19.13;47.35
13553;BME280;6847;48.830;9.116;2023-02-23T13:10:28;97551.88;;;18.98;47.41
13553;BME280;6847;48.830;9.116;2023-02-23T13:13:07;97548.41;;;18.89;47.32
13553;BME280;6847;48.830;9.116;2023-02-23T13:15:47;97542.44;;;18.75;47.11
13553;BME280;6847;48.830;9.116;2023-02-23T13:18:24;97546.31;;;18.74;46.92
13553;BME280;6847;48.830;9.116;2023-02-23T13:20:54;97547.06;;;18.62;47.63
13553;BME280;6847;48.830;9.116;2023-02-23T13:23:30;97543.81;;;18.48;47.20
13553;BME280;6847;48.830;9.116;2023-02-23T13:26:03;97545.13;;;18.42;47.34
13553;BME280;6847;48.830;9.116;2023-02-23T13:28:46;97546.47;;;18.36;47.63
13553;BME280;6847;48.830;9.116;2023-02-23T13:31:22;97544.88;;;18.35;47.55
13553;BME280;6847;48.830;9.116;2023-02-23T13:33:53;97544.88;;;18.35;47.11
13553;BME280;6847;48.830;9.116;2023-02-23T13:36:22;97545.34;;;18.37;47.45
13553;BME280;6847;48.830;9.116;2023-02-23T13:39:05;97542.28;;;18.38;47.40
13553;BME280;6847;48.830;9.116;2023-02-23T13:41:38;97540.66;;;18.37;46.99
13553;BME280;6847;48.830;9.116;2023-02-23T13:44:11;97521.75;;;18.24;47.44
13553;BME280;6847;48.830;9.116;2023-02-23T13:46:47;97540.75;;;18.29;47.37
13553;BME280;6847;48.830;9.116;2023-02-23T13:49:26;97539.94;;;18.28;47.50
13553;BME280;6847;48.830;9.116;2023-02-23T13:52:06;97538.47;;;18.31;47.30
13553;BME280;6847;48.830;9.116;2023-02-23T13:54:36;97538.00;;;18.29;47.34